createdAt,value
2018-10-07T00:02:50.893Z,8.13
2018-10-07T00:07:45.812Z,9.03
2018-10-07T00:12:40.609Z,8.40
2018-10-07T00:17:35.453Z,8.60
2018-10-07T00:22:30.273Z,8.20
2018-10-07T00:27:25.075Z,9.67
2018-10-07T00:32:19.928Z,8.83
2018-10-07T00:37:15.214Z,9.00
2018-10-07T00:42:10.098Z,9.03
2018-10-07T00:47:05.150Z,8.50
2018-10-07T00:52:00.071Z,9.00
2018-10-07T00:56:55.091Z,8.77
2018-10-07T01:01:50.062Z,8.67
2018-10-07T01:06:44.912Z,9.03
2018-10-07T01:11:40.093Z,9.33
2018-10-07T01:16:34.922Z,9.23
2018-10-07T01:21:29.899Z,9.97
2018-10-07T01:26:24.694Z,8.60
2018-10-07T01:31:22.068Z,9.20
2018-10-07T01:45:44.744Z,8.80
2018-10-07T01:50:39.554Z,9.13
2018-10-07T01:55:34.358Z,9.20
2018-10-07T02:00:29.231Z,8.07
2018-10-07T02:05:26.718Z,9.47
2018-10-07T02:10:25.147Z,9.40
2018-10-07T02:15:20.067Z,9.93
2018-10-07T02:20:15.459Z,9.40
2018-10-07T02:25:11.415Z,9.13
2018-10-07T02:30:06.327Z,9.07
2018-10-07T02:35:01.179Z,9.40
2018-10-07T02:39:56.234Z,8.80
2018-10-07T02:44:51.124Z,9.93
2018-10-07T02:49:45.951Z,9.37
2018-10-07T02:54:40.845Z,9.37
2018-10-07T02:59:35.838Z,8.63
2018-10-07T03:04:30.760Z,9.20
2018-10-07T03:09:25.582Z,8.93
2018-10-07T03:14:20.437Z,9.70
2018-10-07T03:19:15.889Z,8.67
2018-10-07T03:24:10.761Z,9.30
2018-10-07T03:29:05.653Z,8.83
2018-10-07T03:34:01.667Z,9.07
2018-10-07T03:38:56.569Z,8.70
2018-10-07T03:43:51.511Z,9.43
2018-10-07T03:48:46.340Z,9.17
2018-10-07T03:53:41.161Z,9.73
2018-10-07T03:58:36.027Z,9.53
2018-10-07T04:03:31.037Z,9.10
2018-10-07T04:08:25.932Z,10.33
2018-10-07T04:13:20.907Z,10.23
2018-10-07T04:18:15.737Z,10.13
2018-10-07T04:23:10.596Z,9.90
2018-10-07T04:28:05.445Z,9.90
2018-10-07T04:33:00.266Z,10.13
2018-10-07T04:37:55.843Z,9.83
2018-10-07T04:42:50.725Z,10.47
2018-10-07T04:47:45.539Z,10.07
2018-10-07T04:52:40.339Z,10.53
2018-10-07T04:57:35.130Z,10.07
2018-10-07T05:02:29.986Z,10.27
2018-10-07T05:07:25.033Z,10.57
2018-10-07T05:12:21.186Z,9.87
2018-10-07T05:17:17.277Z,10.60
2018-10-07T05:22:12.207Z,11.53
2018-10-07T05:27:07.045Z,9.63
2018-10-07T05:32:01.899Z,10.53
2018-10-07T05:36:56.729Z,11.03
2018-10-07T05:41:51.531Z,11.43
2018-10-07T05:46:46.447Z,10.60
2018-10-07T05:51:41.248Z,11.80
2018-10-07T05:56:36.100Z,11.23
2018-10-07T06:01:35.506Z,11.27
2018-10-07T06:06:30.559Z,11.87
2018-10-07T06:11:25.546Z,11.43
2018-10-07T06:16:20.354Z,10.23
2018-10-07T06:21:15.208Z,11.50
2018-10-07T06:26:10.073Z,9.53
2018-10-07T06:31:05.009Z,10.27
2018-10-07T06:35:59.878Z,10.00
2018-10-07T06:40:54.801Z,10.00
2018-10-07T06:45:49.719Z,10.23
2018-10-07T06:50:44.568Z,10.63
2018-10-07T06:55:39.521Z,11.83
2018-10-07T07:00:34.426Z,10.33
2018-10-07T07:05:29.328Z,10.40
2018-10-07T07:10:24.145Z,11.57
2018-10-07T07:15:19.015Z,11.97
2018-10-07T07:20:13.975Z,10.77
2018-10-07T07:25:08.865Z,12.00
2018-10-07T07:30:03.773Z,12.77
2018-10-07T07:34:58.629Z,10.40
2018-10-07T07:39:53.446Z,11.60
2018-10-07T07:44:48.301Z,10.73
2018-10-07T07:49:43.122Z,10.13
2018-10-07T07:54:38.038Z,9.20
2018-10-07T07:59:32.970Z,7.80
2018-10-07T08:04:27.846Z,7.97
2018-10-07T08:09:22.712Z,8.80
2018-10-07T08:14:17.530Z,8.67
2018-10-07T08:19:12.381Z,9.13
2018-10-07T08:24:07.211Z,9.13
2018-10-07T08:29:02.119Z,8.23
2018-10-07T08:33:56.942Z,8.93
2018-10-07T08:38:51.742Z,8.20
2018-10-07T08:43:46.691Z,9.23
2018-10-07T08:48:41.778Z,8.17
2018-10-07T08:53:36.705Z,8.50
2018-10-07T08:58:31.544Z,8.67
2018-10-07T09:03:26.415Z,8.57
2018-10-07T09:08:23.662Z,8.67
2018-10-07T09:13:18.549Z,8.13
2018-10-07T09:18:13.383Z,9.03
2018-10-07T09:23:08.410Z,9.83
2018-10-07T09:28:03.720Z,9.23
2018-10-07T09:32:59.210Z,10.40
2018-10-07T09:37:54.633Z,11.17
2018-10-07T09:42:50.461Z,10.90
2018-10-07T09:47:45.466Z,10.20
2018-10-07T09:52:40.338Z,10.30
2018-10-07T09:57:35.183Z,10.80
2018-10-07T10:02:30.098Z,9.20
2018-10-07T10:07:25.212Z,9.43
2018-10-07T10:12:20.038Z,9.37
2018-10-07T10:17:18.246Z,10.20
2018-10-07T10:22:47.567Z,8.80
2018-10-07T10:29:53.216Z,8.87
2018-10-07T10:36:03.641Z,8.40
2018-10-07T10:41:18.269Z,8.43
2018-10-07T10:46:24.737Z,7.77
2018-10-07T10:51:31.257Z,7.37
2018-10-07T10:56:36.383Z,8.27
2018-10-07T11:01:45.990Z,7.57
2018-10-07T11:07:21.310Z,6.93
2018-10-07T11:14:36.473Z,6.27
2018-10-07T11:19:50.247Z,6.10
2018-10-07T11:26:01.043Z,6.90
2018-10-07T11:33:17.172Z,5.50
2018-10-07T11:38:25.343Z,6.03
2018-10-07T11:43:31.902Z,5.17
2018-10-07T11:48:40.334Z,6.07
2018-10-07T11:53:42.825Z,5.70
2018-10-07T11:58:37.667Z,6.70
2018-10-07T12:03:32.651Z,6.97
2018-10-07T12:08:27.629Z,6.87
2018-10-07T12:13:22.398Z,5.70
2018-10-07T12:18:17.197Z,5.53
2018-10-07T12:23:12.105Z,5.80
2018-10-07T12:28:07.420Z,5.60
2018-10-07T12:33:02.292Z,4.90
2018-10-07T12:37:57.237Z,5.00
2018-10-07T12:42:52.136Z,4.73
2018-10-07T12:47:46.981Z,4.43
2018-10-07T12:52:42.768Z,4.13
2018-10-07T12:57:37.729Z,4.60
2018-10-07T13:02:32.679Z,5.67
2018-10-07T13:07:27.571Z,4.67
2018-10-07T13:12:23.648Z,4.63
2018-10-07T13:17:18.483Z,4.17
2018-10-07T13:22:13.373Z,4.23
2018-10-07T13:27:08.232Z,4.23
2018-10-07T13:32:03.046Z,4.53
2018-10-07T13:36:57.942Z,4.53
2018-10-07T13:41:52.746Z,3.93
2018-10-07T13:46:47.741Z,4.23
2018-10-07T13:51:42.658Z,4.27
2018-10-07T13:56:37.533Z,4.40
2018-10-07T14:01:32.406Z,4.20
2018-10-07T14:06:27.226Z,4.07
2018-10-07T14:11:22.121Z,4.30
2018-10-07T14:16:17.189Z,4.30
2018-10-07T14:21:12.024Z,4.00
2018-10-07T14:26:06.922Z,4.10
2018-10-07T14:31:01.787Z,4.20
2018-10-07T14:35:56.695Z,3.80
2018-10-07T14:40:51.605Z,4.37
2018-10-07T14:45:46.497Z,3.47
2018-10-07T14:50:41.365Z,3.67
2018-10-07T14:55:36.927Z,3.60
2018-10-07T15:00:31.785Z,4.00
2018-10-07T15:05:26.617Z,3.60
2018-10-07T15:10:21.541Z,4.20
2018-10-07T15:15:16.345Z,3.93
2018-10-07T15:20:11.160Z,3.77
2018-10-07T15:25:07.099Z,3.70
2018-10-07T15:30:02.609Z,3.70
2018-10-07T15:34:57.554Z,3.20
2018-10-07T15:39:52.547Z,3.50
2018-10-07T15:44:48.439Z,3.30
2018-10-07T15:49:44.153Z,3.00
2018-10-07T15:54:39.766Z,2.60
2018-10-07T15:59:35.494Z,2.53
2018-10-07T16:04:30.437Z,2.73
2018-10-07T16:09:25.258Z,3.20
2018-10-07T16:14:20.706Z,2.70
2018-10-07T16:19:15.687Z,2.73
2018-10-07T16:24:10.829Z,2.93
2018-10-07T16:29:05.690Z,3.03
2018-10-07T16:34:00.503Z,3.27
2018-10-07T16:38:55.585Z,3.50
2018-10-07T16:43:50.596Z,3.07
2018-10-07T16:48:45.428Z,3.50
2018-10-07T16:53:40.602Z,3.40
2018-10-07T16:58:35.544Z,3.60
2018-10-07T17:03:32.277Z,3.60
2018-10-07T17:08:27.695Z,3.80
2018-10-07T17:13:23.492Z,3.60
2018-10-07T17:18:18.305Z,4.00
2018-10-07T17:23:13.176Z,4.00
2018-10-07T17:28:08.038Z,3.87
2018-10-07T17:33:02.840Z,3.87
2018-10-07T17:37:57.744Z,4.00
2018-10-07T17:42:52.614Z,3.67
2018-10-07T17:47:48.482Z,4.33
2018-10-07T17:52:43.609Z,3.80
2018-10-07T17:57:38.572Z,4.57
2018-10-07T18:02:33.433Z,4.20
2018-10-07T18:07:28.232Z,4.20
2018-10-07T18:12:23.123Z,4.10
2018-10-07T18:17:17.942Z,4.40
2018-10-07T18:22:13.011Z,4.20
2018-10-07T18:27:07.872Z,4.40
2018-10-07T18:32:02.720Z,4.33
2018-10-07T18:36:57.546Z,4.40
2018-10-07T18:41:52.710Z,4.60
2018-10-07T18:46:47.704Z,5.00
2018-10-07T18:51:43.075Z,5.10
2018-10-07T18:56:38.332Z,5.40
2018-10-07T19:01:33.700Z,5.27
2018-10-07T19:06:29.190Z,5.03
2018-10-07T19:11:24.877Z,5.07
2018-10-07T19:16:20.781Z,5.37
2018-10-07T19:21:17.066Z,5.33
2018-10-07T19:26:12.406Z,5.60
2018-10-07T19:31:08.575Z,5.53
2018-10-07T19:36:03.856Z,5.80
2018-10-07T19:40:58.935Z,5.00
2018-10-07T19:45:53.822Z,5.20
2018-10-07T19:50:48.699Z,4.80
2018-10-07T19:55:43.589Z,5.47
2018-10-07T20:00:38.909Z,5.40
2018-10-07T20:05:33.806Z,5.97
2018-10-07T20:10:28.932Z,5.00
2018-10-07T20:15:24.115Z,5.77
2018-10-07T20:20:19.245Z,5.83
2018-10-07T20:25:14.356Z,5.77
2018-10-07T20:30:09.724Z,5.93
2018-10-07T20:35:05.660Z,5.73
2018-10-07T20:40:00.790Z,5.93
2018-10-07T20:44:55.765Z,6.17
2018-10-07T20:49:50.660Z,5.43
2018-10-07T20:54:45.657Z,5.50
2018-10-07T20:59:40.631Z,6.27
2018-10-07T21:04:36.540Z,5.70
2018-10-07T21:09:31.441Z,6.00
2018-10-07T21:14:26.299Z,5.50
2018-10-07T21:19:21.157Z,5.90
2018-10-07T21:24:17.884Z,5.40
2018-10-07T21:29:12.894Z,5.10
2018-10-07T21:34:07.772Z,4.93
2018-10-07T21:39:02.726Z,5.50
2018-10-07T21:43:57.575Z,6.20
2018-10-07T21:48:52.464Z,6.13
2018-10-07T21:53:47.381Z,5.90
2018-10-07T21:58:43.035Z,6.37
2018-10-07T22:03:38.030Z,6.17
2018-10-07T22:08:32.912Z,6.23
2018-10-07T22:13:27.756Z,6.33
2018-10-07T22:18:22.723Z,5.60
2018-10-07T22:23:17.597Z,5.50
2018-10-07T22:28:12.423Z,5.60
2018-10-07T22:33:07.413Z,5.67
2018-10-07T22:38:02.251Z,6.23
2018-10-07T22:42:57.197Z,6.60
2018-10-07T22:47:52.034Z,5.50
2018-10-07T22:52:47.530Z,6.30
2018-10-07T22:57:42.487Z,6.10
2018-10-07T23:02:37.432Z,6.00
2018-10-07T23:07:32.341Z,5.90
2018-10-07T23:12:33.837Z,5.53
2018-10-07T23:17:28.710Z,6.07
2018-10-07T23:22:23.518Z,6.30
2018-10-07T23:27:19.202Z,6.97
2018-10-07T23:32:14.013Z,6.83
2018-10-07T23:37:08.803Z,7.27
2018-10-07T23:42:03.642Z,7.20
2018-10-07T23:46:58.454Z,6.93
2018-10-07T23:51:53.304Z,7.37
2018-10-07T23:56:48.108Z,7.17
